Svetlograd, Russia
Current Conditions -  °F | °C
As of 5:00 AM on Friday 19 Dec 2014 (Local Time) from URMT Reporting Station
Broken Clouds Broken Clouds  
Wind Chill: 39°   Ceiling: 10000
Heat Index: 43°   Visibility: 6mi
Dew Point: 34°   Wind: 7mph
Humidity: 70%   Direction: 200°SSW
Pressure: 29.97"   Gusts: NA
Location:  45.34°N, 42.85°E
Report Text: URMT 190200Z 20003MPS 9999 FEW013 BKN100 06/01 Q1015 NOSIG RMKQFE723 SC060
Loading
Personal Weather Stations






























Interactive Weather Map New forecast layout! Learn more

10-Day Weather Forecast

Advertisements
Track Severe Weather on mobile